Skip Navigation Links Skip Navigation Links

Current Weather

Heathrow, London

For information only: do not use for flight planning or navigation.
Latest weather
Observation time Tuesday, October 19, 2021 10:20 AM BST
Local time Tuesday, October 19, 2021 10:40 AM BST
Flight conditions Marginal Visual Meteorological Conditions
Winds
Wind direction Southwest (230°)
Wind speed 22 mph
Wind gusting to 33 mph
Visibility 6.2 mi.
Sky condition
Ceiling 2,400 ft. broken clouds
Cloud layer broken clouds 2,400 ft.
Temperature 66°F
Dewpoint 57°F
Altimeter 29.91 in.Hg
Derived measurements
Relative humidity 73%
Density altitude 699 ft.
Remarks
Fully automated report.
No significant changes expected in the next two hours.
METAR EGLL 190920Z AUTO 23019G29KT 9999 BKN024 19/14 Q1013 NOSIG

Settings

Location code

InnerDrive.Weather 4.0.6770.0 Release CLR 4.0.30319.42000
Copyright ©2018 Inner Drive Technology. All rights reserved. Portions Copyright ©1986-2018 David Braverman.

Find weather

Site navigation


Skip Navigation Links

Place info

Page info

PayPal - The safer, easier way to pay online!

Return home.

Copyright ©2021 Inner Drive Technology. Purveyors of fine, hand-crafted computer software. Page printed 2021-10-19T09:40:22 UTC.